Tailstrike Accident Boeing 737-8Q8 (WL) LV-KJE,
ASN logo
ASN Wikibase Occurrence # 349677
 
This information is added by users of ASN. Neither ASN nor the Flight Safety Foundation are responsible for the completeness or correctness of this information. If you feel this information is incomplete or incorrect, you can submit corrected information.

Date:Friday 5 January 2024
Time:22:28 LT
Type:Silhouette image of generic B738 model; specific model in this crash may look slightly different    
Boeing 737-8Q8 (WL)
Owner/operator:Flybondi
Registration: LV-KJE
MSN: 30700/1942
Year of manufacture:2006
Fatalities:Fatalities: 0 / Occupants:
Aircraft damage: Substantial
Category:Accident
Location:Mar del Plata-Astor Piazzolla International Airport, BA (MDQ/SAZM) -   Argentina
Phase: Landing
Nature:Passenger - Scheduled
Departure airport:Buenos Aires-Jorge Newbery Airport, BA (AEP/SABE)
Destination airport:Mar del Plata-Astor Piazzolla International Airport, BA (MDQ/SAZM)
Investigating agency: JST
Confidence Rating: Information is only available from news, social media or unofficial sources
Narrative:
Flybondi flight FO5720, a Boeing 737-8Q8, suffered a tailstrike during landing on runway 31 at Mar del Plata International Airport, BA (MDQ). The aircraft rolled out and taxied to the apron normally.

METAR:

SAZM 060200Z 33012KT CAVOK 22/19 Q1010
SAZM 060100Z 35011KT CAVOK 22/20 1010
SAZM 060000Z 01013KT 9999 TS SCT028 OVC043 FEW055CB 22/20 Q1009

Sources:

https://twitter.com/JSTsucesos/status/1743469400441643258
https://www.flightradar24.com/data/aircraft/lv-kje#338405e5

Media:

Revision history:

Date/timeContributorUpdates
06-Jan-2024 11:24 harro Added
06-Jan-2024 11:25 harro Updated [Date, Time, Other fatalities, Location, Embed code, Narrative]
06-Jan-2024 17:38 Iceman 29 Updated [Embed code]
08-Jan-2024 19:10 harro Updated [Other fatalities, Embed code, Narrative]
08-Jan-2024 19:13 harro Updated [Other fatalities]

Corrections or additions? ... Edit this accident description

The Aviation Safety Network is an exclusive service provided by:
Quick Links:

CONNECT WITH US: FSF on social media FSF Facebook FSF Twitter FSF Youtube FSF LinkedIn FSF Instagram

©2024 Flight Safety Foundation

1920 Ballenger Av, 4th Fl.
Alexandria, Virginia 22314
www.FlightSafety.org